sensor_id;sensor_type;location;lat;lon;timestamp;pressure;altitude;pressure_sealevel;temperature;humidity
41306;BME280;27051;50.376;19.152;2022-11-03T00:01:08;98890.76;;;10.98;57.87
41306;BME280;27051;50.376;19.152;2022-11-03T00:03:35;98889.19;;;10.97;57.98
41306;BME280;27051;50.376;19.152;2022-11-03T00:06:02;98885.77;;;11.03;58.12
41306;BME280;27051;50.376;19.152;2022-11-03T00:08:35;98887.67;;;11.02;58.14
41306;BME280;27051;50.376;19.152;2022-11-03T00:11:08;98882.59;;;11.01;58.28
41306;BME280;27051;50.376;19.152;2022-11-03T00:13:38;98878.00;;;11.01;58.23
41306;BME280;27051;50.376;19.152;2022-11-03T00:16:12;98886.32;;;11.02;58.19
41306;BME280;27051;50.376;19.152;2022-11-03T00:18:38;98884.50;;;11.00;58.12
41306;BME280;27051;50.376;19.152;2022-11-03T00:21:07;98878.52;;;10.95;58.10
41306;BME280;27051;50.376;19.152;2022-11-03T00:23:40;98883.42;;;10.93;58.24
41306;BME280;27051;50.376;19.152;2022-11-03T00:26:19;98880.17;;;10.93;58.28
41306;BME280;27051;50.376;19.152;2022-11-03T00:28:49;98880.64;;;10.95;58.28
41306;BME280;27051;50.376;19.152;2022-11-03T00:31:26;98882.86;;;10.93;58.31
41306;BME280;27051;50.376;19.152;2022-11-03T00:33:55;98883.90;;;10.95;58.38
41306;BME280;27051;50.376;19.152;2022-11-03T00:36:25;98886.97;;;10.99;58.36
41306;BME280;27051;50.376;19.152;2022-11-03T00:38:53;98888.31;;;10.99;58.29
41306;BME280;27051;50.376;19.152;2022-11-03T00:41:21;98889.92;;;10.92;58.13
41306;BME280;27051;50.376;19.152;2022-11-03T00:43:49;98886.67;;;10.92;58.33
41306;BME280;27051;50.376;19.152;2022-11-03T00:46:21;98892.84;;;10.93;58.35
41306;BME280;27051;50.376;19.152;2022-11-03T00:48:48;98896.31;;;10.93;58.33
41306;BME280;27051;50.376;19.152;2022-11-03T00:53:55;98894.75;;;10.83;58.29
41306;BME280;27051;50.376;19.152;2022-11-03T00:56:26;98892.57;;;10.77;58.37
41306;BME280;27051;50.376;19.152;2022-11-03T00:58:56;98904.89;;;10.78;58.54
41306;BME280;27051;50.376;19.152;2022-11-03T01:01:26;98896.69;;;10.74;58.43
41306;BME280;27051;50.376;19.152;2022-11-03T01:03:56;98903.80;;;10.70;58.48
41306;BME280;27051;50.376;19.152;2022-11-03T01:06:23;98905.66;;;10.63;58.58
41306;BME280;27051;50.376;19.152;2022-11-03T01:08:49;98905.41;;;10.62;58.58
41306;BME280;27051;50.376;19.152;2022-11-03T01:11:20;98904.06;;;10.62;58.56
41306;BME280;27051;50.376;19.152;2022-11-03T01:13:47;98905.66;;;10.63;58.61
41306;BME280;27051;50.376;19.152;2022-11-03T01:16:14;98903.41;;;10.65;58.64
41306;BME280;27051;50.376;19.152;2022-11-03T01:18:40;98904.14;;;10.69;58.70
41306;BME280;27051;50.376;19.152;2022-11-03T01:21:07;98906.27;;;10.69;58.58
41306;BME280;27051;50.376;19.152;2022-11-03T01:23:34;98907.28;;;10.71;58.46
41306;BME280;27051;50.376;19.152;2022-11-03T01:26:10;98905.88;;;10.64;58.51
41306;BME280;27051;50.376;19.152;2022-11-03T01:28:35;98903.58;;;10.60;58.55
41306;BME280;27051;50.376;19.152;2022-11-03T01:31:04;98897.84;;;10.56;58.59
41306;BME280;27051;50.376;19.152;2022-11-03T01:33:32;98899.10;;;10.58;58.63
41306;BME280;27051;50.376;19.152;2022-11-03T01:36:00;98897.20;;;10.59;58.54
41306;BME280;27051;50.376;19.152;2022-11-03T01:38:32;98894.34;;;10.55;58.55
41306;BME280;27051;50.376;19.152;2022-11-03T01:41:01;98886.00;;;10.48;58.27
41306;BME280;27051;50.376;19.152;2022-11-03T01:43:29;98891.37;;;10.39;58.24
41306;BME280;27051;50.376;19.152;2022-11-03T01:48:47;98893.95;;;10.25;58.06
41306;BME280;27051;50.376;19.152;2022-11-03T01:51:17;98891.58;;;10.14;57.94
41306;BME280;27051;50.376;19.152;2022-11-03T01:53:47;98887.87;;;10.04;57.92
41306;BME280;27051;50.376;19.152;2022-11-03T01:56:15;98885.75;;;9.95;57.90
41306;BME280;27051;50.376;19.152;2022-11-03T01:58:44;98889.60;;;9.83;57.69
41306;BME280;27051;50.376;19.152;2022-11-03T02:01:13;98890.61;;;9.75;57.81
41306;BME280;27051;50.376;19.152;2022-11-03T02:03:51;98889.65;;;9.71;57.83
41306;BME280;27051;50.376;19.152;2022-11-03T02:06:22;98889.46;;;9.59;57.66
41306;BME280;27051;50.376;19.152;2022-11-03T02:08:55;98896.58;;;9.55;57.94
41306;BME280;27051;50.376;19.152;2022-11-03T02:11:33;98889.61;;;9.54;58.21
41306;BME280;27051;50.376;19.152;2022-11-03T02:14:00;98893.18;;;9.52;58.48
41306;BME280;27051;50.376;19.152;2022-11-03T02:16:30;98887.25;;;9.52;58.61
41306;BME280;27051;50.376;19.152;2022-11-03T02:18:59;98885.05;;;9.54;58.75
41306;BME280;27051;50.376;19.152;2022-11-03T02:27:19;98889.53;;;9.56;58.63
41306;BME280;27051;50.376;19.152;2022-11-03T02:29:46;98884.31;;;9.51;58.10
41306;BME280;27051;50.376;19.152;2022-11-03T02:32:24;98880.99;;;9.46;57.95
41306;BME280;27051;50.376;19.152;2022-11-03T02:35:16;98883.48;;;9.33;58.30
41306;BME280;27051;50.376;19.152;2022-11-03T02:37:57;98878.92;;;9.34;58.70
41306;BME280;27051;50.376;19.152;2022-11-03T02:43:01;98884.94;;;9.40;59.25
41306;BME280;27051;50.376;19.152;2022-11-03T02:45:29;98882.89;;;9.45;59.51
41306;BME280;27051;50.376;19.152;2022-11-03T02:47:58;98879.28;;;9.50;59.55
41306;BME280;27051;50.376;19.152;2022-11-03T02:50:31;98884.02;;;9.53;59.45
41306;BME280;27051;50.376;19.152;2022-11-03T02:52:59;98882.90;;;9.54;59.33
41306;BME280;27051;50.376;19.152;2022-11-03T02:59:06;98884.09;;;9.59;59.52
41306;BME280;27051;50.376;19.152;2022-11-03T03:01:36;98883.56;;;9.60;59.54
41306;BME280;27051;50.376;19.152;2022-11-03T03:04:07;98885.77;;;9.58;59.53
41306;BME280;27051;50.376;19.152;2022-11-03T03:06:52;98884.24;;;9.54;59.45
41306;BME280;27051;50.376;19.152;2022-11-03T03:09:25;98887.81;;;9.52;59.57
41306;BME280;27051;50.376;19.152;2022-11-03T03:11:57;98890.64;;;9.47;59.41
41306;BME280;27051;50.376;19.152;2022-11-03T03:14:31;98893.92;;;9.44;59.48
41306;BME280;27051;50.376;19.152;2022-11-03T03:17:03;98889.90;;;9.44;59.65
41306;BME280;27051;50.376;19.152;2022-11-03T03:22:37;98887.06;;;9.40;59.14
41306;BME280;27051;50.376;19.152;2022-11-03T03:28:15;98897.16;;;9.15;58.40
41306;BME280;27051;50.376;19.152;2022-11-03T03:30:42;98899.20;;;8.98;58.29
41306;BME280;27051;50.376;19.152;2022-11-03T03:33:11;98898.02;;;8.70;58.26
41306;BME280;27051;50.376;19.152;2022-11-03T03:35:41;98897.88;;;8.55;58.31
41306;BME280;27051;50.376;19.152;2022-11-03T03:38:16;98896.95;;;8.48;58.68
41306;BME280;27051;50.376;19.152;2022-11-03T03:40:47;98900.73;;;8.47;58.73
41306;BME280;27051;50.376;19.152;2022-11-03T03:43:17;98892.27;;;8.43;58.62
41306;BME280;27051;50.376;19.152;2022-11-03T03:45:46;98887.06;;;8.35;58.66
41306;BME280;27051;50.376;19.152;2022-11-03T03:48:14;98889.81;;;8.33;58.49
41306;BME280;27051;50.376;19.152;2022-11-03T03:50:42;98886.98;;;8.26;58.55
41306;BME280;27051;50.376;19.152;2022-11-03T03:53:11;98887.43;;;8.20;58.46
41306;BME280;27051;50.376;19.152;2022-11-03T03:55:40;98895.70;;;8.10;58.55
41306;BME280;27051;50.376;19.152;2022-11-03T03:58:11;98891.07;;;8.01;58.43
41306;BME280;27051;50.376;19.152;2022-11-03T04:00:39;98897.55;;;7.98;58.51
41306;BME280;27051;50.376;19.152;2022-11-03T04:03:17;98899.39;;;8.00;58.82
41306;BME280;27051;50.376;19.152;2022-11-03T04:05:43;98904.19;;;8.00;59.14
41306;BME280;27051;50.376;19.152;2022-11-03T04:08:14;98901.52;;;8.00;59.54
41306;BME280;27051;50.376;19.152;2022-11-03T04:10:41;98900.55;;;7.96;59.64
41306;BME280;27051;50.376;19.152;2022-11-03T04:13:08;98902.13;;;7.97;59.65
41306;BME280;27051;50.376;19.152;2022-11-03T04:15:35;98900.78;;;7.97;59.68
41306;BME280;27051;50.376;19.152;2022-11-03T04:18:02;98900.96;;;8.01;60.03
41306;BME280;27051;50.376;19.152;2022-11-03T04:20:29;98893.98;;;8.02;59.85
41306;BME280;27051;50.376;19.152;2022-11-03T04:22:55;98894.16;;;8.06;60.00
41306;BME280;27051;50.376;19.152;2022-11-03T04:25:22;98896.25;;;8.09;60.12
41306;BME280;27051;50.376;19.152;2022-11-03T04:27:49;98893.98;;;8.14;59.96
41306;BME280;27051;50.376;19.152;2022-11-03T04:30:18;98895.64;;;8.12;59.33
41306;BME280;27051;50.376;19.152;2022-11-03T04:32:57;98893.08;;;8.07;59.39
41306;BME280;27051;50.376;19.152;2022-11-03T04:35:26;98891.19;;;8.08;59.37
41306;BME280;27051;50.376;19.152;2022-11-03T04:37:57;98888.22;;;8.09;59.97
41306;BME280;27051;50.376;19.152;2022-11-03T04:40:24;98891.80;;;8.16;60.66
41306;BME280;27051;50.376;19.152;2022-11-03T04:42:51;98885.48;;;8.23;60.88
41306;BME280;27051;50.376;19.152;2022-11-03T04:47:59;98876.23;;;8.18;59.80
41306;BME280;27051;50.376;19.152;2022-11-03T04:50:27;98875.62;;;8.10;59.24
41306;BME280;27051;50.376;19.152;2022-11-03T04:52:58;98871.95;;;8.05;59.65
41306;BME280;27051;50.376;19.152;2022-11-03T04:55:25;98875.97;;;8.05;60.16
41306;BME280;27051;50.376;19.152;2022-11-03T04:58:01;98870.00;;;8.09;59.64
41306;BME280;27051;50.376;19.152;2022-11-03T05:00:30;98867.70;;;8.04;59.33
41306;BME280;27051;50.376;19.152;2022-11-03T05:02:56;98864.03;;;8.00;59.23
41306;BME280;27051;50.376;19.152;2022-11-03T05:05:24;98857.66;;;7.99;59.32
41306;BME280;27051;50.376;19.152;2022-11-03T05:07:54;98863.55;;;7.98;59.21
41306;BME280;27051;50.376;19.152;2022-11-03T05:10:27;98863.66;;;7.93;58.93
41306;BME280;27051;50.376;19.152;2022-11-03T05:12:55;98862.44;;;7.88;59.03
41306;BME280;27051;50.376;19.152;2022-11-03T05:15:40;98860.25;;;7.79;58.91
41306;BME280;27051;50.376;19.152;2022-11-03T05:18:16;98860.77;;;7.67;58.69
41306;BME280;27051;50.376;19.152;2022-11-03T05:20:53;98860.53;;;7.52;58.67
41306;BME280;27051;50.376;19.152;2022-11-03T05:23:26;98858.28;;;7.32;58.62
41306;BME280;27051;50.376;19.152;2022-11-03T05:25:56;98867.11;;;7.18;58.79
41306;BME280;27051;50.376;19.152;2022-11-03T05:28:27;98863.34;;;7.06;58.67
41306;BME280;27051;50.376;19.152;2022-11-03T05:30:55;98868.55;;;7.00;59.03
41306;BME280;27051;50.376;19.152;2022-11-03T05:33:29;98868.97;;;7.04;59.20
41306;BME280;27051;50.376;19.152;2022-11-03T05:36:01;98865.28;;;7.03;59.19
41306;BME280;27051;50.376;19.152;2022-11-03T05:38:41;98865.56;;;7.01;59.00
41306;BME280;27051;50.376;19.152;2022-11-03T05:41:20;98868.38;;;6.93;59.29
41306;BME280;27051;50.376;19.152;2022-11-03T05:43:57;98873.91;;;6.97;59.38
41306;BME280;27051;50.376;19.152;2022-11-03T05:46:33;98872.10;;;6.95;59.48
41306;BME280;27051;50.376;19.152;2022-11-03T05:49:01;98870.07;;;7.03;59.57
41306;BME280;27051;50.376;19.152;2022-11-03T05:51:31;98868.55;;;7.00;59.41
41306;BME280;27051;50.376;19.152;2022-11-03T05:54:06;98870.36;;;7.02;59.35
41306;BME280;27051;50.376;19.152;2022-11-03T05:56:36;98871.28;;;6.94;59.28
41306;BME280;27051;50.376;19.152;2022-11-03T05:59:03;98872.94;;;6.93;59.56
41306;BME280;27051;50.376;19.152;2022-11-03T06:01:37;98873.89;;;7.00;59.47
41306;BME280;27051;50.376;19.152;2022-11-03T06:04:19;98879.43;;;7.03;59.39
41306;BME280;27051;50.376;19.152;2022-11-03T06:07:19;98880.72;;;7.06;59.31
41306;BME280;27051;50.376;19.152;2022-11-03T06:09:53;98881.19;;;6.94;59.08
41306;BME280;27051;50.376;19.152;2022-11-03T06:12:21;98884.91;;;6.95;59.33
41306;BME280;27051;50.376;19.152;2022-11-03T06:14:50;98886.11;;;7.03;59.45
41306;BME280;27051;50.376;19.152;2022-11-03T06:17:23;98880.81;;;7.14;59.80
41306;BME280;27051;50.376;19.152;2022-11-03T06:19:57;98882.55;;;7.22;59.78
41306;BME280;27051;50.376;19.152;2022-11-03T06:22:35;98884.84;;;7.28;59.77
41306;BME280;27051;50.376;19.152;2022-11-03T06:25:15;98887.55;;;7.39;59.87
41306;BME280;27051;50.376;19.152;2022-11-03T06:27:42;98888.13;;;7.50;59.74
41306;BME280;27051;50.376;19.152;2022-11-03T06:30:24;98884.00;;;7.55;59.61
41306;BME280;27051;50.376;19.152;2022-11-03T06:32:53;98883.90;;;7.60;59.66
41306;BME280;27051;50.376;19.152;2022-11-03T06:35:23;98884.89;;;7.65;59.53
41306;BME280;27051;50.376;19.152;2022-11-03T06:37:51;98884.34;;;7.65;59.52
41306;BME280;27051;50.376;19.152;2022-11-03T06:42:53;98886.89;;;7.59;59.55
41306;BME280;27051;50.376;19.152;2022-11-03T06:45:23;98877.31;;;7.55;59.61
41306;BME280;27051;50.376;19.152;2022-11-03T06:47:52;98880.97;;;7.48;59.56
41306;BME280;27051;50.376;19.152;2022-11-03T06:50:24;98876.53;;;7.55;59.85
41306;BME280;27051;50.376;19.152;2022-11-03T06:52:58;98875.53;;;7.65;59.87
41306;BME280;27051;50.376;19.152;2022-11-03T06:55:36;98872.03;;;7.78;59.90
41306;BME280;27051;50.376;19.152;2022-11-03T06:58:31;98877.42;;;7.89;59.83
41306;BME280;27051;50.376;19.152;2022-11-03T07:01:03;98868.66;;;7.97;59.86
41306;BME280;27051;50.376;19.152;2022-11-03T07:03:38;98866.25;;;8.10;59.80
41306;BME280;27051;50.376;19.152;2022-11-03T07:06:19;98868.69;;;8.20;59.68
41306;BME280;27051;50.376;19.152;2022-11-03T07:08:59;98868.86;;;8.23;59.62
41306;BME280;27051;50.376;19.152;2022-11-03T07:11:29;98863.44;;;8.26;59.71
41306;BME280;27051;50.376;19.152;2022-11-03T07:14:16;98864.28;;;8.24;59.86
41306;BME280;27051;50.376;19.152;2022-11-03T07:16:46;98862.09;;;8.40;60.02
41306;BME280;27051;50.376;19.152;2022-11-03T07:19:28;98857.69;;;8.55;59.99
41306;BME280;27051;50.376;19.152;2022-11-03T07:22:09;98860.50;;;8.70;60.02
41306;BME280;27051;50.376;19.152;2022-11-03T07:24:40;98856.20;;;8.91;59.95
41306;BME280;27051;50.376;19.152;2022-11-03T07:27:30;98851.55;;;9.06;59.84
41306;BME280;27051;50.376;19.152;2022-11-03T07:30:09;98851.34;;;9.22;59.81
41306;BME280;27051;50.376;19.152;2022-11-03T07:32:45;98844.21;;;9.46;59.58
41306;BME280;27051;50.376;19.152;2022-11-03T07:35:29;98836.67;;;9.66;59.28
41306;BME280;27051;50.376;19.152;2022-11-03T07:38:00;98836.52;;;9.71;59.16
41306;BME280;27051;50.376;19.152;2022-11-03T07:40:30;98832.74;;;9.81;59.27
41306;BME280;27051;50.376;19.152;2022-11-03T07:43:00;98830.86;;;9.90;59.38
41306;BME280;27051;50.376;19.152;2022-11-03T07:45:36;98824.36;;;9.99;59.46
41306;BME280;27051;50.376;19.152;2022-11-03T07:48:18;98829.12;;;10.03;59.50
41306;BME280;27051;50.376;19.152;2022-11-03T07:50:52;98828.63;;;10.09;59.53
41306;BME280;27051;50.376;19.152;2022-11-03T07:58:51;98820.80;;;10.19;59.56
41306;BME280;27051;50.376;19.152;2022-11-03T08:01:28;98818.98;;;10.26;59.71
41306;BME280;27051;50.376;19.152;2022-11-03T08:04:02;98814.22;;;10.40;59.91
41306;BME280;27051;50.376;19.152;2022-11-03T08:06:31;98814.34;;;10.61;59.88
41306;BME280;27051;50.376;19.152;2022-11-03T08:08:58;98803.70;;;10.88;59.80
41306;BME280;27051;50.376;19.152;2022-11-03T08:11:25;98806.83;;;11.14;59.78
41306;BME280;27051;50.376;19.152;2022-11-03T08:13:52;98812.39;;;11.38;59.52
41306;BME280;27051;50.376;19.152;2022-11-03T08:16:19;98806.89;;;11.56;59.34
41306;BME280;27051;50.376;19.152;2022-11-03T08:18:46;98806.42;;;11.74;59.84
41306;BME280;27051;50.376;19.152;2022-11-03T08:21:12;98797.36;;;12.27;59.65
41306;BME280;27051;50.376;19.152;2022-11-03T08:23:39;98794.97;;;12.90;59.41
41306;BME280;27051;50.376;19.152;2022-11-03T08:26:06;98794.49;;;13.55;58.67
41306;BME280;27051;50.376;19.152;2022-11-03T08:28:33;98790.70;;;14.13;57.68
41306;BME280;27051;50.376;19.152;2022-11-03T08:30:59;98782.37;;;14.56;57.19
41306;BME280;27051;50.376;19.152;2022-11-03T08:33:27;98785.45;;;14.95;56.82
41306;BME280;27051;50.376;19.152;2022-11-03T08:35:54;98783.97;;;15.24;55.93
41306;BME280;27051;50.376;19.152;2022-11-03T08:38:20;98791.36;;;15.43;56.30
41306;BME280;27051;50.376;19.152;2022-11-03T08:40:47;98786.66;;;15.59;55.69
41306;BME280;27051;50.376;19.152;2022-11-03T08:43:13;98783.66;;;15.70;55.47
41306;BME280;27051;50.376;19.152;2022-11-03T08:45:40;98783.58;;;15.76;55.49
41306;BME280;27051;50.376;19.152;2022-11-03T08:48:07;98778.69;;;15.66;55.06
41306;BME280;27051;50.376;19.152;2022-11-03T08:50:33;98775.63;;;15.58;55.17
41306;BME280;27051;50.376;19.152;2022-11-03T08:53:00;98765.91;;;15.57;55.18
41306;BME280;27051;50.376;19.152;2022-11-03T08:55:27;98761.50;;;15.58;55.35
41306;BME280;27051;50.376;19.152;2022-11-03T08:57:54;98751.15;;;15.54;55.36
41306;BME280;27051;50.376;19.152;2022-11-03T09:00:20;98754.44;;;15.54;55.09
41306;BME280;27051;50.376;19.152;2022-11-03T09:02:47;98757.78;;;15.57;55.56
41306;BME280;27051;50.376;19.152;2022-11-03T09:05:14;98756.81;;;15.65;55.38
41306;BME280;27051;50.376;19.152;2022-11-03T09:07:41;98748.42;;;15.70;55.27
41306;BME280;27051;50.376;19.152;2022-11-03T09:10:09;98745.57;;;15.73;55.01
41306;BME280;27051;50.376;19.152;2022-11-03T09:12:36;98741.56;;;15.76;54.95
41306;BME280;27051;50.376;19.152;2022-11-03T09:15:04;98742.05;;;15.82;54.54
41306;BME280;27051;50.376;19.152;2022-11-03T09:17:32;98741.22;;;15.88;54.15
41306;BME280;27051;50.376;19.152;2022-11-03T09:19:59;98732.28;;;15.87;53.77
41306;BME280;27051;50.376;19.152;2022-11-03T09:22:25;98734.55;;;15.95;53.48
41306;BME280;27051;50.376;19.152;2022-11-03T09:24:52;98730.63;;;16.02;53.42
41306;BME280;27051;50.376;19.152;2022-11-03T09:27:18;98723.11;;;16.15;53.31
41306;BME280;27051;50.376;19.152;2022-11-03T09:29:45;98728.92;;;16.36;52.73
41306;BME280;27051;50.376;19.152;2022-11-03T09:32:12;98725.20;;;16.35;52.58
41306;BME280;27051;50.376;19.152;2022-11-03T09:34:39;98712.64;;;16.36;52.79
41306;BME280;27051;50.376;19.152;2022-11-03T09:37:06;98713.71;;;16.55;52.88
41306;BME280;27051;50.376;19.152;2022-11-03T09:39:33;98710.06;;;16.80;52.43
41306;BME280;27051;50.376;19.152;2022-11-03T09:41:59;98703.47;;;16.81;52.10
41306;BME280;27051;50.376;19.152;2022-11-03T09:44:26;98709.60;;;16.64;51.70
41306;BME280;27051;50.376;19.152;2022-11-03T09:46:53;98710.11;;;16.60;51.74
41306;BME280;27051;50.376;19.152;2022-11-03T09:49:20;98706.47;;;16.62;51.94
41306;BME280;27051;50.376;19.152;2022-11-03T09:51:46;98701.03;;;16.62;51.45
41306;BME280;27051;50.376;19.152;2022-11-03T09:54:15;98698.13;;;16.61;51.54
41306;BME280;27051;50.376;19.152;2022-11-03T09:56:42;98690.80;;;16.52;51.08
41306;BME280;27051;50.376;19.152;2022-11-03T09:59:20;98689.52;;;16.46;51.18
41306;BME280;27051;50.376;19.152;2022-11-03T10:01:50;98689.13;;;16.44;50.75
41306;BME280;27051;50.376;19.152;2022-11-03T10:04:20;98691.91;;;16.38;50.94
41306;BME280;27051;50.376;19.152;2022-11-03T10:06:50;98688.38;;;16.34;49.69
41306;BME280;27051;50.376;19.152;2022-11-03T10:09:29;98678.45;;;16.32;50.36
41306;BME280;27051;50.376;19.152;2022-11-03T10:11:56;98676.57;;;16.36;50.31
41306;BME280;27051;50.376;19.152;2022-11-03T10:14:23;98670.02;;;16.37;50.47
41306;BME280;27051;50.376;19.152;2022-11-03T10:16:52;98669.13;;;16.42;50.01
41306;BME280;27051;50.376;19.152;2022-11-03T10:19:23;98665.11;;;16.46;49.51
41306;BME280;27051;50.376;19.152;2022-11-03T10:21:50;98654.98;;;16.43;49.29
41306;BME280;27051;50.376;19.152;2022-11-03T10:24:17;98653.05;;;16.43;48.95
41306;BME280;27051;50.376;19.152;2022-11-03T10:26:50;98648.31;;;16.63;48.62
41306;BME280;27051;50.376;19.152;2022-11-03T10:29:25;98638.39;;;16.84;48.52
41306;BME280;27051;50.376;19.152;2022-11-03T10:31:55;98637.59;;;17.14;48.64
41306;BME280;27051;50.376;19.152;2022-11-03T10:34:26;98631.04;;;17.52;48.51
41306;BME280;27051;50.376;19.152;2022-11-03T10:37:21;98634.61;;;17.60;47.68
41306;BME280;27051;50.376;19.152;2022-11-03T10:39:55;98634.78;;;17.57;47.84
41306;BME280;27051;50.376;19.152;2022-11-03T10:42:27;98631.77;;;17.83;47.30
41306;BME280;27051;50.376;19.152;2022-11-03T10:45:17;98629.59;;;17.99;46.78
41306;BME280;27051;50.376;19.152;2022-11-03T10:48:00;98624.72;;;18.19;46.99
41306;BME280;27051;50.376;19.152;2022-11-03T10:50:27;98622.61;;;18.50;46.84
41306;BME280;27051;50.376;19.152;2022-11-03T10:52:54;98608.35;;;19.06;45.31
41306;BME280;27051;50.376;19.152;2022-11-03T10:55:23;98601.16;;;19.71;44.85
41306;BME280;27051;50.376;19.152;2022-11-03T10:57:51;98598.44;;;20.32;44.30
41306;BME280;27051;50.376;19.152;2022-11-03T11:00:18;98595.66;;;20.68;43.88
41306;BME280;27051;50.376;19.152;2022-11-03T11:02:46;98590.65;;;21.80;43.00
41306;BME280;27051;50.376;19.152;2022-11-03T11:07:46;98588.78;;;22.45;41.39
41306;BME280;27051;50.376;19.152;2022-11-03T11:10:20;98578.66;;;21.93;41.51
41306;BME280;27051;50.376;19.152;2022-11-03T11:13:14;98581.06;;;21.54;41.71
41306;BME280;27051;50.376;19.152;2022-11-03T11:15:44;98574.69;;;21.01;41.03
41306;BME280;27051;50.376;19.152;2022-11-03T11:23:47;98553.20;;;20.27;41.23
41306;BME280;27051;50.376;19.152;2022-11-03T11:31:44;98532.28;;;21.12;39.40
41306;BME280;27051;50.376;19.152;2022-11-03T11:42:19;98505.81;;;27.86;35.27
41306;BME280;27051;50.376;19.152;2022-11-03T11:44:52;98499.27;;;28.93;33.17
41306;BME280;27051;50.376;19.152;2022-11-03T11:50:20;98492.95;;;30.80;31.66
41306;BME280;27051;50.376;19.152;2022-11-03T11:55:30;98485.65;;;32.79;29.79
41306;BME280;27051;50.376;19.152;2022-11-03T11:58:00;98471.80;;;33.15;29.08
41306;BME280;27051;50.376;19.152;2022-11-03T12:00:31;98471.65;;;32.59;28.31
41306;BME280;27051;50.376;19.152;2022-11-03T12:03:01;98462.91;;;32.36;28.15
41306;BME280;27051;50.376;19.152;2022-11-03T12:05:33;98458.23;;;32.72;26.53
41306;BME280;27051;50.376;19.152;2022-11-03T12:08:01;98450.27;;;33.05;26.26
41306;BME280;27051;50.376;19.152;2022-11-03T12:10:29;98442.05;;;33.31;25.23
41306;BME280;27051;50.376;19.152;2022-11-03T12:12:58;98439.97;;;33.36;24.86
41306;BME280;27051;50.376;19.152;2022-11-03T12:15:53;98438.42;;;33.45;24.81
41306;BME280;27051;50.376;19.152;2022-11-03T12:18:36;98433.39;;;34.21;23.68
41306;BME280;27051;50.376;19.152;2022-11-03T12:21:09;98426.17;;;35.36;23.42
41306;BME280;27051;50.376;19.152;2022-11-03T12:23:43;98430.75;;;35.93;21.90
41306;BME280;27051;50.376;19.152;2022-11-03T12:28:56;98422.70;;;36.35;20.59
41306;BME280;27051;50.376;19.152;2022-11-03T12:31:23;98421.30;;;36.23;20.90
41306;BME280;27051;50.376;19.152;2022-11-03T12:33:49;98416.08;;;36.38;20.32
41306;BME280;27051;50.376;19.152;2022-11-03T12:36:16;98411.27;;;36.44;19.55
41306;BME280;27051;50.376;19.152;2022-11-03T12:38:43;98407.70;;;36.55;18.93
41306;BME280;27051;50.376;19.152;2022-11-03T12:41:09;98405.03;;;36.39;19.04
41306;BME280;27051;50.376;19.152;2022-11-03T12:43:36;98392.17;;;36.87;19.19
41306;BME280;27051;50.376;19.152;2022-11-03T12:46:02;98388.83;;;37.00;18.25
41306;BME280;27051;50.376;19.152;2022-11-03T12:48:29;98388.74;;;36.71;17.36
41306;BME280;27051;50.376;19.152;2022-11-03T12:50:56;98383.28;;;36.72;18.24
41306;BME280;27051;50.376;19.152;2022-11-03T12:53:23;98371.98;;;37.17;17.59
41306;BME280;27051;50.376;19.152;2022-11-03T12:55:49;98374.70;;;37.51;17.40
41306;BME280;27051;50.376;19.152;2022-11-03T12:58:16;98371.70;;;37.85;17.29
41306;BME280;27051;50.376;19.152;2022-11-03T13:00:42;98360.44;;;37.37;16.90
41306;BME280;27051;50.376;19.152;2022-11-03T13:03:09;98359.45;;;36.83;16.94
41306;BME280;27051;50.376;19.152;2022-11-03T13:05:36;98359.61;;;36.67;17.05
41306;BME280;27051;50.376;19.152;2022-11-03T13:08:02;98363.02;;;36.89;16.92
41306;BME280;27051;50.376;19.152;2022-11-03T13:10:29;98364.27;;;37.05;16.58
41306;BME280;27051;50.376;19.152;2022-11-03T13:12:56;98353.53;;;37.44;16.13
41306;BME280;27051;50.376;19.152;2022-11-03T13:15:22;98350.19;;;37.57;16.40
41306;BME280;27051;50.376;19.152;2022-11-03T13:17:49;98346.77;;;37.52;16.35
41306;BME280;27051;50.376;19.152;2022-11-03T13:20:16;98342.88;;;37.66;15.72
41306;BME280;27051;50.376;19.152;2022-11-03T13:22:43;98337.92;;;37.66;16.15
41306;BME280;27051;50.376;19.152;2022-11-03T13:25:09;98338.67;;;37.66;15.69
41306;BME280;27051;50.376;19.152;2022-11-03T13:27:36;98334.27;;;37.24;15.40
41306;BME280;27051;50.376;19.152;2022-11-03T13:30:03;98335.83;;;36.62;15.79
41306;BME280;27051;50.376;19.152;2022-11-03T13:32:31;98325.49;;;35.52;15.74
41306;BME280;27051;50.376;19.152;2022-11-03T13:34:58;98318.84;;;34.46;16.40
41306;BME280;27051;50.376;19.152;2022-11-03T13:37:25;98311.50;;;33.75;16.85
41306;BME280;27051;50.376;19.152;2022-11-03T13:39:52;98307.09;;;33.22;17.19
41306;BME280;27051;50.376;19.152;2022-11-03T13:42:18;98302.19;;;32.86;17.57
41306;BME280;27051;50.376;19.152;2022-11-03T13:44:45;98296.73;;;32.67;17.65
41306;BME280;27051;50.376;19.152;2022-11-03T13:47:12;98296.00;;;32.51;17.62
41306;BME280;27051;50.376;19.152;2022-11-03T13:49:41;98302.56;;;32.58;17.83
41306;BME280;27051;50.376;19.152;2022-11-03T13:52:08;98293.62;;;32.90;17.89
41306;BME280;27051;50.376;19.152;2022-11-03T13:54:35;98292.98;;;32.59;17.87
41306;BME280;27051;50.376;19.152;2022-11-03T13:57:01;98289.16;;;31.29;18.02
41306;BME280;27051;50.376;19.152;2022-11-03T13:59:28;98288.30;;;29.48;19.06
41306;BME280;27051;50.376;19.152;2022-11-03T14:01:55;98281.58;;;28.00;19.78
41306;BME280;27051;50.376;19.152;2022-11-03T14:04:22;98282.05;;;26.72;20.43
41306;BME280;27051;50.376;19.152;2022-11-03T14:06:48;98290.60;;;25.68;21.21
41306;BME280;27051;50.376;19.152;2022-11-03T14:09:15;98285.68;;;24.77;21.72
41306;BME280;27051;50.376;19.152;2022-11-03T14:11:42;98285.80;;;24.00;22.38
41306;BME280;27051;50.376;19.152;2022-11-03T14:14:09;98281.61;;;23.32;22.83
41306;BME280;27051;50.376;19.152;2022-11-03T14:16:35;98288.33;;;22.69;23.53